Time;durP1;ratioP1;P1;durP2;ratioP2;P2;SDS_P1;SDS_P2;PMS_P1;PMS_P2;Temp;Humidity;BMP_temperature;BMP_pressure;BME280_temperature;BME280_humidity;BME280_pressure;Samples;Min_cycle;Max_cycle;Signal;HPM_P1;HPM_P2
2023/06/03 00:01:40;;;;;;;;;1.00;1.00;;;;;22.22;36.30;101657.70;110215;1265;19552;-39
2023/06/03 00:04:08;;;;;;;;;1.00;1.00;;;;;22.22;36.30;101659.45;110182;1265;22678;-39
2023/06/03 00:06:35;;;;;;;;;1.00;1.00;;;;;22.22;36.26;101660.38;110201;1265;20699;-39
2023/06/03 00:09:03;;;;;;;;;1.00;1.00;;;;;22.22;36.18;101664.23;110210;1250;22510;-39
2023/06/03 00:11:30;;;;;;;;;1.00;1.00;;;;;22.23;36.45;101660.14;110187;1264;19972;-38
2023/06/03 00:13:58;;;;;;;;;1.00;1.00;;;;;22.23;36.44;101663.00;110192;1265;20520;-39
2023/06/03 00:16:26;;;;;;;;;1.00;1.00;;;;;22.22;36.27;101656.79;110199;1265;22316;-38
2023/06/03 00:18:53;;;;;;;;;1.00;1.00;;;;;22.22;36.43;101659.69;110209;1251;21653;-38
2023/06/03 00:21:21;;;;;;;;;1.00;1.00;;;;;22.23;36.33;101657.92;110149;1250;20770;-38
2023/06/03 00:23:49;;;;;;;;;1.00;1.00;;;;;22.23;36.26;101654.30;110158;1265;22649;-39
2023/06/03 00:26:16;;;;;;;;;1.00;1.00;;;;;22.22;36.25;101654.35;110185;1265;18629;-39
2023/06/03 00:28:43;;;;;;;;;1.00;1.00;;;;;22.23;36.38;101654.10;110214;1264;20809;-40
2023/06/03 00:31:11;;;;;;;;;1.00;1.00;;;;;22.23;36.42;101655.36;110181;1251;19648;-39
2023/06/03 00:33:39;;;;;;;;;1.00;1.00;;;;;22.24;36.23;101658.75;110251;1265;18965;-39
2023/06/03 00:36:06;;;;;;;;;1.00;1.00;;;;;22.24;36.37;101654.95;110184;1257;22143;-41
2023/06/03 00:38:34;;;;;;;;;1.00;1.00;;;;;22.25;36.49;101655.41;110229;1251;19605;-39
2023/06/03 00:41:01;;;;;;;;;1.00;1.00;;;;;22.24;36.42;101655.61;110088;1257;21215;-39
2023/06/03 00:43:29;;;;;;;;;1.00;1.00;;;;;22.25;36.43;101659.23;110101;1265;22646;-40
2023/06/03 00:45:56;;;;;;;;;1.00;1.00;;;;;22.24;36.24;101660.35;110125;1265;19792;-39
2023/06/03 00:48:23;;;;;;;;;1.00;1.00;;;;;22.24;36.42;101664.63;110249;1265;21950;-38
2023/06/03 00:50:51;;;;;;;;;1.00;1.00;;;;;22.23;36.50;101671.38;110242;1265;19377;-37
2023/06/03 00:53:18;;;;;;;;;1.00;1.00;;;;;22.25;36.28;101670.16;110184;1250;19626;-38
2023/06/03 00:55:46;;;;;;;;;1.00;1.00;;;;;22.25;36.40;101672.81;109685;1265;569174;-42
2023/06/03 00:58:13;;;;;;;;;4.00;1.00;;;;;22.24;36.32;101672.23;110073;1250;21078;-38
2023/06/03 01:00:41;;;;;;;;;1.00;1.00;;;;;22.24;36.46;101678.94;110108;1250;18575;-38
2023/06/03 01:03:14;;;;;;;;;1.00;1.00;;;;;22.24;36.30;101679.17;110125;1251;18721;-38
2023/06/03 01:05:45;;;;;;;;;1.00;1.00;;;;;22.24;36.57;101678.05;110162;1260;20599;-38
2023/06/03 01:08:13;;;;;;;;;1.00;1.00;;;;;22.23;36.46;101676.29;110253;1264;19583;-38
2023/06/03 01:10:40;;;;;;;;;1.00;1.00;;;;;22.24;36.34;101682.98;110273;1251;22219;-39
2023/06/03 01:13:07;;;;;;;;;1.00;1.00;;;;;22.24;36.42;101685.17;110218;1250;22783;-39
2023/06/03 01:15:35;;;;;;;;;1.00;1.00;;;;;22.23;36.52;101685.40;110194;1265;19609;-39
2023/06/03 01:18:02;;;;;;;;;1.00;1.00;;;;;22.23;36.45;101688.30;110198;1251;19965;-40
2023/06/03 01:20:30;;;;;;;;;1.00;1.00;;;;;22.23;36.59;101687.95;110214;1265;19540;-42
2023/06/03 01:22:57;;;;;;;;;1.00;1.00;;;;;22.24;36.42;101691.17;110231;1265;18528;-39
2023/06/03 01:25:26;;;;;;;;;1.00;1.00;;;;;22.25;36.43;101692.01;110188;1264;22175;-38
2023/06/03 01:27:57;;;;;;;;;1.00;1.00;;;;;22.24;36.60;101691.28;110249;1251;20771;-38
2023/06/03 01:30:24;;;;;;;;;1.00;1.00;;;;;22.24;36.50;101689.36;110187;1264;21572;-39
2023/06/03 01:32:52;;;;;;;;;1.00;1.00;;;;;22.25;36.49;101689.25;110203;1257;18974;-39
2023/06/03 01:35:19;;;;;;;;;1.00;1.00;;;;;22.24;36.38;101686.58;110171;1265;20647;-38
2023/06/03 01:37:47;;;;;;;;;1.00;1.00;;;;;22.24;36.48;101689.73;110223;1249;20897;-37
2023/06/03 01:40:14;;;;;;;;;1.00;1.00;;;;;22.24;36.37;101692.77;110228;1249;20426;-38
2023/06/03 01:42:42;;;;;;;;;1.00;1.00;;;;;22.24;36.42;101696.98;110222;1265;19426;-38
2023/06/03 01:45:09;;;;;;;;;1.00;1.00;;;;;22.24;36.39;101700.03;110259;1264;18549;-39
2023/06/03 01:47:37;;;;;;;;;1.00;1.00;;;;;22.25;36.47;101702.69;110204;1264;18636;-39
2023/06/03 01:50:04;;;;;;;;;1.00;1.00;;;;;22.25;36.44;101701.05;110234;1265;22501;-39
2023/06/03 01:52:32;;;;;;;;;1.00;1.00;;;;;22.24;36.27;101701.14;110201;1265;20887;-38
2023/06/03 01:54:59;;;;;;;;;1.00;1.00;;;;;22.23;36.23;101701.06;110216;1265;20937;-39
2023/06/03 01:57:27;;;;;;;;;1.00;1.00;;;;;22.25;36.20;101707.81;110228;1264;21284;-39
2023/06/03 01:59:55;;;;;;;;;1.00;1.00;;;;;22.24;36.26;101706.20;110202;1265;18342;-39
2023/06/03 02:02:23;;;;;;;;;1.00;1.00;;;;;22.25;36.39;101712.39;110214;1265;22213;-39
2023/06/03 02:04:51;;;;;;;;;1.00;1.00;;;;;22.25;36.31;101714.52;110214;1264;19383;-39
2023/06/03 02:07:20;;;;;;;;;1.00;1.00;;;;;22.25;36.22;101716.04;110217;1265;21709;-37
2023/06/03 02:09:47;;;;;;;;;1.00;1.00;;;;;22.25;36.10;101718.06;110278;1251;18530;-40
2023/06/03 02:12:15;;;;;;;;;1.00;1.00;;;;;22.23;36.19;101718.18;110238;1264;20723;-39
2023/06/03 02:14:42;;;;;;;;;1.00;1.00;;;;;22.23;36.21;101723.09;110171;1264;18537;-41
2023/06/03 02:17:11;;;;;;;;;1.00;1.00;;;;;22.24;36.20;101726.89;110203;1265;19519;-39
2023/06/03 02:19:38;;;;;;;;;1.00;1.00;;;;;22.24;36.15;101726.34;110244;1265;19757;-39
2023/06/03 02:22:06;;;;;;;;;1.00;1.00;;;;;22.23;36.20;101724.02;110259;1265;18512;-38
2023/06/03 02:24:34;;;;;;;;;1.00;1.00;;;;;22.23;36.18;101723.14;110215;1266;21790;-38
2023/06/03 02:27:02;;;;;;;;;1.00;1.00;;;;;22.24;36.28;101727.20;110198;1266;19345;-38
2023/06/03 02:29:31;;;;;;;;;1.00;1.00;;;;;22.24;36.22;101727.70;110295;1265;20790;-38
2023/06/03 02:31:59;;;;;;;;;1.00;1.00;;;;;22.24;36.15;101733.23;110276;1250;21755;-38
2023/06/03 02:34:27;;;;;;;;;1.00;1.00;;;;;22.24;36.27;101733.89;110236;1249;20789;-38
2023/06/03 02:36:54;;;;;;;;;1.00;1.00;;;;;22.24;36.12;101737.20;110261;1265;18389;-38
2023/06/03 02:39:21;;;;;;;;;1.00;1.00;;;;;22.25;36.14;101737.52;110230;1257;19937;-41
2023/06/03 02:41:49;;;;;;;;;1.00;1.00;;;;;22.27;36.11;101735.63;110275;1251;20850;-37
2023/06/03 02:44:16;;;;;;;;;1.00;1.00;;;;;22.28;36.20;101736.77;110180;1265;19584;-39
2023/06/03 02:46:44;;;;;;;;;1.00;1.00;;;;;22.27;36.12;101733.93;110211;1265;18608;-38
2023/06/03 02:49:11;;;;;;;;;1.00;1.00;;;;;22.27;36.16;101739.98;110212;1251;22493;-37
2023/06/03 02:51:40;;;;;;;;;1.00;1.00;;;;;22.25;36.35;101741.27;110140;1265;22238;-37
2023/06/03 02:54:08;;;;;;;;;1.00;1.00;;;;;22.25;36.31;101743.80;110158;1265;22577;-40
2023/06/03 02:56:35;;;;;;;;;1.00;1.00;;;;;22.26;36.40;101742.30;110194;1251;21925;-38
2023/06/03 02:59:03;;;;;;;;;1.00;1.00;;;;;22.26;36.35;101739.23;110105;1265;19860;-38
2023/06/03 03:01:30;;;;;;;;;1.00;1.00;;;;;22.25;36.30;101739.45;110079;1264;18599;-37
2023/06/03 03:03:58;;;;;;;;;1.00;1.00;;;;;22.24;36.39;101741.33;110083;1264;19837;-37
2023/06/03 03:06:25;;;;;;;;;1.00;1.00;;;;;22.25;36.36;101742.91;110076;1251;19815;-38
2023/06/03 03:08:53;;;;;;;;;2.00;1.00;;;;;22.25;36.43;101744.77;110124;1264;19996;-38
2023/06/03 03:11:20;;;;;;;;;1.00;1.00;;;;;22.24;36.47;101748.27;110224;1250;21022;-39
2023/06/03 03:13:48;;;;;;;;;1.00;1.00;;;;;22.25;36.37;101750.21;110184;1265;19923;-39
2023/06/03 03:16:17;;;;;;;;;2.00;2.00;;;;;22.25;36.38;101746.56;110218;1265;20131;-38
2023/06/03 03:18:44;;;;;;;;;1.00;1.00;;;;;22.26;36.56;101745.23;110224;1265;20708;-39
2023/06/03 03:21:12;;;;;;;;;1.00;1.00;;;;;22.26;36.56;101746.80;110212;1264;18220;-38
2023/06/03 03:23:39;;;;;;;;;1.00;1.00;;;;;22.25;36.45;101748.41;110158;1265;19831;-38
2023/06/03 03:26:07;;;;;;;;;1.00;1.00;;;;;22.25;36.52;101750.89;110100;1265;21553;-40
2023/06/03 03:28:35;;;;;;;;;1.00;1.00;;;;;22.25;36.36;101751.10;110151;1265;18614;-39
2023/06/03 03:31:04;;;;;;;;;1.00;1.00;;;;;22.26;36.48;101754.61;110245;1250;20114;-40
2023/06/03 03:33:32;;;;;;;;;1.00;1.00;;;;;22.27;36.43;101757.45;110266;1265;19353;-38
2023/06/03 03:36:08;;;;;;;;;1.00;1.00;;;;;22.27;36.54;101758.79;110213;1250;19649;-38
2023/06/03 03:38:35;;;;;;;;;1.00;1.00;;;;;22.26;36.52;101760.77;110201;1264;22656;-38
2023/06/03 03:41:03;;;;;;;;;1.00;1.00;;;;;22.27;36.42;101760.42;110278;1250;20768;-39
2023/06/03 03:43:30;;;;;;;;;1.00;1.00;;;;;22.27;36.57;101759.30;110250;1265;18551;-41
2023/06/03 03:45:58;;;;;;;;;1.00;1.00;;;;;22.28;36.62;101763.02;110257;1250;20002;-39
2023/06/03 03:48:25;;;;;;;;;1.00;1.00;;;;;22.28;36.69;101765.16;110220;1251;20971;-38
2023/06/03 03:50:53;;;;;;;;;2.00;1.50;;;;;22.28;36.52;101761.38;110205;1264;18509;-39
2023/06/03 03:53:21;;;;;;;;;1.00;1.00;;;;;22.28;36.56;101762.48;110220;1265;18651;-41
2023/06/03 03:55:48;;;;;;;;;1.00;1.00;;;;;22.29;36.68;101768.35;110273;1265;22057;-39
2023/06/03 03:58:16;;;;;;;;;1.00;1.00;;;;;22.27;36.53;101771.79;110241;1251;19636;-39
2023/06/03 04:00:43;;;;;;;;;1.00;1.00;;;;;22.28;36.61;101771.17;110228;1250;22633;-39
2023/06/03 04:03:11;;;;;;;;;;;;;;;22.28;36.60;101771.96;110182;1265;20916;-39
2023/06/03 04:05:38;;;;;;;;;1.00;1.00;;;;;22.28;36.66;101776.15;110250;1251;18586;-38
2023/06/03 04:08:06;;;;;;;;;1.00;1.00;;;;;22.27;36.73;101779.09;110237;1264;18730;-38
2023/06/03 04:10:33;;;;;;;;;1.00;1.00;;;;;22.28;36.58;101781.17;110211;1265;21748;-39
2023/06/03 04:13:00;;;;;;;;;1.00;1.00;;;;;22.29;36.59;101785.98;110188;1257;19577;-38
2023/06/03 04:15:30;;;;;;;;;1.00;1.00;;;;;22.29;36.77;101784.32;110225;1264;20290;-38
2023/06/03 04:17:57;;;;;;;;;1.00;1.00;;;;;22.30;36.72;101783.73;110220;1251;19450;-38
2023/06/03 04:20:25;;;;;;;;;1.00;1.00;;;;;22.30;36.63;101777.03;110218;1265;18380;-38
2023/06/03 04:22:52;;;;;;;;;1.00;1.00;;;;;22.28;36.67;101776.95;110268;1265;21462;-38
2023/06/03 04:25:20;;;;;;;;;1.00;1.00;;;;;22.30;36.62;101783.77;110157;1265;22284;-37
2023/06/03 04:27:47;;;;;;;;;1.00;1.00;;;;;22.30;36.69;101782.46;110204;1260;18330;-38
2023/06/03 04:30:14;;;;;;;;;1.00;1.00;;;;;22.31;36.65;101782.39;110222;1257;20269;-37
2023/06/03 04:32:42;;;;;;;;;1.00;1.00;;;;;22.31;36.69;101784.59;110181;1251;21600;-38
2023/06/03 04:35:09;;;;;;;;;1.00;1.00;;;;;22.32;36.87;101787.73;110202;1250;19943;-38
2023/06/03 04:46:42;;;;;;;;;1.00;1.00;;;;;22.32;36.92;101789.85;110153;1251;20216;-37
2023/06/03 04:49:10;;;;;;;;;1.00;1.00;;;;;22.32;36.73;101788.39;110201;1260;20663;-38
2023/06/03 04:51:40;;;;;;;;;1.00;1.00;;;;;22.32;36.82;101792.78;110245;1265;18396;-38
2023/06/03 04:54:07;;;;;;;;;1.00;1.00;;;;;22.34;36.63;101791.88;110210;1251;20068;-40
2023/06/03 04:56:35;;;;;;;;;1.00;1.00;;;;;22.33;36.77;101795.55;110190;1265;20685;-39
2023/06/03 04:59:03;;;;;;;;;2.00;1.00;;;;;22.34;36.80;101799.45;110238;1249;18602;-38
2023/06/03 05:01:36;;;;;;;;;1.00;1.00;;;;;22.35;36.80;101798.64;110251;1251;20047;-38
2023/06/03 05:04:04;;;;;;;;;1.00;1.00;;;;;22.35;36.77;101799.93;110233;1265;22160;-37
2023/06/03 05:06:33;;;;;;;;;1.00;1.00;;;;;22.35;36.83;101793.50;110230;1251;19618;-38
2023/06/03 05:09:01;;;;;;;;;1.00;1.00;;;;;22.35;36.82;101793.70;110200;1265;18635;-37
2023/06/03 05:11:28;;;;;;;;;1.00;1.00;;;;;22.36;36.80;101798.73;110234;1265;19955;-40
2023/06/03 05:13:55;;;;;;;;;1.00;1.00;;;;;22.37;36.69;101800.20;110217;1250;19833;-39
2023/06/03 05:16:23;;;;;;;;;1.00;1.00;;;;;22.38;36.84;101812.52;110202;1251;20087;-39
2023/06/03 05:18:50;;;;;;;;;1.00;1.00;;;;;22.38;36.92;101808.48;110256;1265;19284;-40
2023/06/03 05:21:19;;;;;;;;;1.00;1.00;;;;;22.39;36.81;101810.79;110216;1249;20069;-38
2023/06/03 05:23:46;;;;;;;;;1.00;1.00;;;;;22.40;36.88;101806.48;110237;1250;22761;-39
2023/06/03 05:26:13;;;;;;;;;1.00;1.00;;;;;22.40;36.91;101810.67;110200;1265;19371;-39
2023/06/03 05:28:41;;;;;;;;;1.00;1.00;;;;;22.41;36.72;101812.96;110212;1251;22123;-39
2023/06/03 05:31:08;;;;;;;;;1.00;1.00;;;;;22.41;36.69;101808.57;110215;1251;20153;-40
2023/06/03 05:33:36;;;;;;;;;1.00;1.00;;;;;22.40;36.90;101804.98;110221;1251;21358;-39
2023/06/03 05:36:03;;;;;;;;;1.00;1.00;;;;;22.42;36.96;101806.27;110216;1251;19616;-39
2023/06/03 05:38:31;;;;;;;;;1.00;1.00;;;;;22.43;36.81;101812.02;110203;1265;22632;-39
2023/06/03 05:40:59;;;;;;;;;1.00;1.00;;;;;22.44;36.91;101810.85;110195;1250;20787;-40
2023/06/03 05:43:26;;;;;;;;;1.00;1.00;;;;;22.45;36.80;101813.98;110230;1260;22577;-39
2023/06/03 05:45:54;;;;;;;;;1.00;1.00;;;;;22.45;36.81;101812.14;110215;1265;18794;-39
2023/06/03 05:48:21;;;;;;;;;1.00;1.00;;;;;22.46;36.94;101813.14;110200;1259;20704;-39
2023/06/03 05:50:48;;;;;;;;;1.00;1.00;;;;;22.47;36.86;101813.63;110195;1265;18276;-39
2023/06/03 05:53:15;;;;;;;;;1.00;1.00;;;;;22.49;37.01;101808.14;110174;1257;18685;-39
2023/06/03 05:55:43;;;;;;;;;1.00;1.00;;;;;22.55;37.24;101811.89;110222;1251;20754;-40
2023/06/03 05:58:10;;;;;;;;;1.00;1.00;;;;;22.58;37.29;101812.77;110217;1251;18550;-39
2023/06/03 06:00:37;;;;;;;;;1.00;1.00;;;;;22.60;37.31;101814.92;110223;1265;18736;-41
2023/06/03 06:03:05;;;;;;;;;1.00;1.00;;;;;22.61;37.36;101819.92;110178;1251;22009;-40
2023/06/03 06:05:32;;;;;;;;;1.00;1.00;;;;;22.64;37.57;101818.17;110196;1250;22197;-39
2023/06/03 06:07:59;;;;;;;;;1.00;1.00;;;;;22.65;37.98;101821.65;110211;1257;22703;-38
2023/06/03 06:10:27;;;;;;;;;2.00;2.00;;;;;22.66;37.85;101824.46;110201;1265;20692;-40
2023/06/03 06:12:54;;;;;;;;;1.00;1.00;;;;;22.70;37.79;101832.80;110227;1250;18644;-39
2023/06/03 06:15:21;;;;;;;;;1.00;1.00;;;;;22.72;38.05;101832.51;110198;1264;18597;-39
2023/06/03 06:17:49;;;;;;;;;2.00;1.00;;;;;22.75;38.19;101834.13;110181;1259;20635;-39
2023/06/03 06:20:16;;;;;;;;;1.00;1.00;;;;;22.76;38.20;101837.34;110218;1264;18312;-42
2023/06/03 06:22:44;;;;;;;;;1.00;1.00;;;;;22.75;38.16;101842.15;110200;1264;20142;-37
2023/06/03 06:25:11;;;;;;;;;1.00;1.00;;;;;22.76;38.05;101836.56;110068;1251;22807;-39
2023/06/03 06:27:39;;;;;;;;;1.00;1.00;;;;;22.78;37.99;101840.16;110964;1260;19480;-39
2023/06/03 06:30:07;;;;;;;;;1.00;1.00;;;;;22.79;38.16;101837.63;111946;1264;20255;-40
2023/06/03 06:32:34;;;;;;;;;1.00;1.00;;;;;22.83;37.82;101839.51;112021;1264;19653;-38
2023/06/03 06:35:02;;;;;;;;;5.00;4.00;;;;;22.87;37.89;101841.42;111950;1250;18501;-37
2023/06/03 06:37:29;;;;;;;;;42.00;31.00;;;;;22.91;37.87;101834.23;112101;1264;18665;-38
2023/06/03 06:39:57;;;;;;;;;62.00;45.00;;;;;22.93;37.88;101830.75;112013;1254;20641;-41
2023/06/03 06:42:24;;;;;;;;;64.50;50.00;;;;;22.94;37.59;101832.33;112058;1264;19026;-37
2023/06/03 06:44:51;;;;;;;;;50.00;41.00;;;;;22.95;37.40;101827.59;111924;1250;21425;-38
2023/06/03 06:47:19;;;;;;;;;63.50;47.50;;;;;22.96;36.90;101829.85;112012;1264;20823;-38
2023/06/03 06:49:46;;;;;;;;;70.00;53.00;;;;;22.98;36.58;101830.74;111895;1264;20181;-38
2023/06/03 06:52:14;;;;;;;;;66.50;48.00;;;;;23.01;36.36;101828.84;112046;1264;20378;-37
2023/06/03 06:54:41;;;;;;;;;72.50;53.50;;;;;23.00;36.08;101834.40;111933;1264;20673;-37
2023/06/03 06:57:09;;;;;;;;;62.00;45.00;;;;;23.03;36.45;101834.41;112054;1264;19922;-38
2023/06/03 06:59:36;;;;;;;;;43.50;35.50;;;;;23.04;36.33;101832.47;111936;1264;20074;-38
2023/06/03 07:02:03;;;;;;;;;40.50;32.50;;;;;23.05;36.64;101831.85;112043;1264;19405;-38
2023/06/03 07:04:31;;;;;;;;;39.00;33.50;;;;;23.06;36.62;101826.83;111956;1264;18628;-38
2023/06/03 07:06:58;;;;;;;;;26.50;22.00;;;;;23.07;36.51;101822.52;112096;1264;18615;-38
2023/06/03 07:09:26;;;;;;;;;35.00;28.00;;;;;23.06;36.56;101819.34;111958;1257;19532;-38
2023/06/03 07:11:53;;;;;;;;;27.00;21.67;;;;;23.03;36.52;101815.79;112075;1264;18587;-38
2023/06/03 07:14:21;;;;;;;;;21.00;16.00;;;;;23.03;36.43;101817.32;111936;1264;18865;-39
2023/06/03 07:16:49;;;;;;;;;17.00;16.00;;;;;23.04;36.39;101818.21;112077;1250;21005;-38
2023/06/03 07:19:16;;;;;;;;;18.00;15.50;;;;;23.03;36.30;101815.04;111921;1249;20139;-39
2023/06/03 07:21:44;;;;;;;;;15.67;14.67;;;;;23.01;36.20;101813.31;112012;1264;18704;-38
2023/06/03 07:24:12;;;;;;;;;16.00;14.00;;;;;22.99;36.08;101810.23;111981;1250;20770;-38
2023/06/03 07:26:40;;;;;;;;;12.00;11.00;;;;;22.98;35.96;101809.64;112034;1264;19929;-38
2023/06/03 07:29:07;;;;;;;;;11.00;11.00;;;;;22.97;35.77;101799.88;112143;1264;20391;-38
2023/06/03 07:31:35;;;;;;;;;8.00;8.00;;;;;22.72;34.55;101800.74;111985;1264;19526;-38
2023/06/03 07:34:03;;;;;;;;;7.00;5.00;;;;;22.34;33.62;101803.30;112079;1264;20999;-38
2023/06/03 07:36:30;;;;;;;;;4.00;4.00;;;;;22.05;33.18;101807.02;111985;1249;20342;-38
2023/06/03 07:38:57;;;;;;;;;2.00;2.00;;;;;21.90;32.53;101806.05;112135;1250;20772;-38
2023/06/03 07:41:25;;;;;;;;;4.33;4.00;;;;;21.69;32.08;101803.72;111980;1264;19669;-38
2023/06/03 07:43:52;;;;;;;;;3.33;3.33;;;;;21.59;31.55;101802.31;112129;1249;18655;-39
2023/06/03 07:46:20;;;;;;;;;2.00;2.00;;;;;21.71;31.42;101799.48;111954;1264;21774;-38
2023/06/03 07:48:47;;;;;;;;;2.00;2.00;;;;;21.74;31.28;101805.74;112110;1264;18361;-39
2023/06/03 07:51:15;;;;;;;;;14.00;13.00;;;;;21.76;31.36;101804.80;112004;1249;20127;-39
2023/06/03 07:53:42;;;;;;;;;8.00;8.00;;;;;21.81;31.38;101801.55;112147;1264;19238;-40
2023/06/03 07:56:09;;;;;;;;;7.00;6.00;;;;;21.86;31.71;101808.13;111999;1264;18966;-39
2023/06/03 07:58:37;;;;;;;;;4.00;4.00;;;;;21.86;31.21;101805.36;112049;1264;20001;-40
2023/06/03 08:01:04;;;;;;;;;2.00;2.00;;;;;21.70;30.75;101807.63;111982;1249;21935;-39
2023/06/03 08:03:32;;;;;;;;;3.00;3.00;;;;;21.49;30.50;101809.38;112074;1264;19527;-39
2023/06/03 08:06:00;;;;;;;;;3.00;2.00;;;;;21.38;30.57;101806.82;112017;1257;18635;-39
2023/06/03 08:08:28;;;;;;;;;3.00;2.00;;;;;21.41;30.54;101812.58;112085;1264;21052;-39
2023/06/03 08:10:55;;;;;;;;;2.00;2.00;;;;;21.47;30.82;101809.94;112003;1264;18396;-38
2023/06/03 08:13:22;;;;;;;;;2.00;2.00;;;;;21.49;30.85;101810.67;112126;1251;20116;-38
2023/06/03 08:15:50;;;;;;;;;2.00;2.00;;;;;21.49;30.93;101805.41;112087;1264;19331;-39
2023/06/03 08:18:17;;;;;;;;;4.67;4.00;;;;;21.47;30.75;101808.98;112170;1249;18348;-39
2023/06/03 08:20:45;;;;;;;;;2.67;2.67;;;;;21.48;30.42;101803.10;111994;1264;19029;-39
2023/06/03 08:23:12;;;;;;;;;2.00;2.00;;;;;21.30;30.10;101806.16;112157;1264;19338;-39
2023/06/03 08:25:40;;;;;;;;;3.00;2.00;;;;;21.16;29.70;101811.39;112020;1249;19510;-38
2023/06/03 08:28:07;;;;;;;;;2.00;2.00;;;;;20.80;29.12;101813.55;112147;1264;21649;-39
2023/06/03 08:30:34;;;;;;;;;2.00;2.00;;;;;21.01;29.35;101812.58;112080;1264;21029;-39
2023/06/03 08:33:02;;;;;;;;;4.00;4.00;;;;;20.94;29.00;101812.16;112070;1261;19569;-37
2023/06/03 08:35:29;;;;;;;;;2.00;2.00;;;;;20.84;29.20;101808.40;111983;1250;20382;-38
2023/06/03 08:37:57;;;;;;;;;2.00;2.00;;;;;21.06;29.19;101801.70;112083;1251;21142;-39
2023/06/03 08:40:25;;;;;;;;;2.33;2.00;;;;;20.89;29.14;101801.55;112026;1257;19660;-39
2023/06/03 08:42:53;;;;;;;;;4.00;4.00;;;;;20.95;29.56;101808.23;112119;1249;21378;-39
2023/06/03 08:45:20;;;;;;;;;4.00;4.00;;;;;20.87;29.25;101805.41;111948;1251;20775;-39
2023/06/03 08:47:48;;;;;;;;;2.00;2.00;;;;;21.05;29.63;101805.75;112085;1264;18397;-40
2023/06/03 08:50:15;;;;;;;;;2.00;2.00;;;;;21.23;29.55;101804.36;111961;1249;21062;-39
2023/06/03 08:52:43;;;;;;;;;2.00;2.00;;;;;21.28;29.53;101805.17;112104;1250;21122;-40
2023/06/03 08:55:10;;;;;;;;;2.00;2.00;;;;;21.24;29.74;101802.27;111998;1250;18421;-41
2023/06/03 08:57:37;;;;;;;;;2.00;2.00;;;;;21.36;29.59;101805.94;112135;1264;18672;-40
2023/06/03 09:00:06;;;;;;;;;2.00;2.00;;;;;21.30;29.57;101811.29;112006;1249;20774;-39
2023/06/03 09:02:34;;;;;;;;;2.00;2.00;;;;;21.01;29.23;101813.08;112028;1264;19656;-39
2023/06/03 09:05:03;;;;;;;;;2.00;2.00;;;;;21.04;29.39;101814.27;111933;1264;18668;-39
2023/06/03 09:07:30;;;;;;;;;2.00;2.00;;;;;21.13;29.46;101811.02;111948;1251;21007;-39
2023/06/03 09:09:58;;;;;;;;;2.00;2.00;;;;;21.36;29.61;101809.81;112077;1249;19970;-40
2023/06/03 09:12:25;;;;;;;;;2.00;2.00;;;;;21.42;29.40;101806.07;111950;1256;20266;-38
2023/06/03 09:14:53;;;;;;;;;2.00;2.00;;;;;21.41;29.17;101800.80;112055;1249;21133;-40
2023/06/03 09:17:20;;;;;;;;;2.00;2.00;;;;;21.48;29.28;101800.27;111961;1264;18521;-40
2023/06/03 09:19:48;;;;;;;;;5.00;5.00;;;;;21.55;29.25;101793.70;112108;1264;18612;-40
2023/06/03 09:22:15;;;;;;;;;4.00;4.00;;;;;21.59;29.53;101793.58;111973;1250;21902;-40
2023/06/03 09:24:43;;;;;;;;;4.00;4.00;;;;;21.61;29.58;101792.36;112108;1251;19694;-40
2023/06/03 09:27:10;;;;;;;;;4.00;4.00;;;;;21.61;29.70;101797.20;111957;1265;21425;-40
2023/06/03 09:29:37;;;;;;;;;5.00;4.00;;;;;21.58;29.78;101798.10;112128;1250;20860;-40
2023/06/03 09:32:05;;;;;;;;;5.00;4.00;;;;;21.55;29.71;101794.95;111961;1250;18133;-40
2023/06/03 09:34:33;;;;;;;;;2.00;2.00;;;;;21.47;29.56;101793.38;112132;1257;18536;-40
2023/06/03 09:37:00;;;;;;;;;2.00;2.00;;;;;21.45;29.27;101795.44;111944;1265;21297;-40
2023/06/03 09:39:28;;;;;;;;;4.00;2.00;;;;;21.49;29.53;101791.95;112077;1264;18169;-40
2023/06/03 09:41:55;;;;;;;;;4.00;2.00;;;;;21.58;29.52;101795.38;112003;1249;20173;-40
2023/06/03 09:44:22;;;;;;;;;2.67;2.00;;;;;21.65;29.47;101788.71;112132;1249;20798;-41
2023/06/03 09:46:50;;;;;;;;;2.00;2.00;;;;;21.73;29.52;101794.17;111987;1264;18488;-40
2023/06/03 09:49:17;;;;;;;;;2.00;2.00;;;;;21.68;29.40;101794.00;112122;1249;20267;-41
2023/06/03 09:51:45;;;;;;;;;4.00;2.67;;;;;21.55;29.34;101788.91;111974;1257;20550;-38
2023/06/03 09:54:13;;;;;;;;;2.00;2.00;;;;;21.67;29.43;101787.58;112143;1249;18509;-39
2023/06/03 09:56:41;;;;;;;;;2.00;2.00;;;;;21.67;29.38;101784.79;111956;1264;20363;-38
2023/06/03 09:59:08;;;;;;;;;4.00;2.00;;;;;21.67;29.54;101782.77;112094;1264;19811;-37
2023/06/03 10:01:35;;;;;;;;;4.00;2.00;;;;;21.71;29.92;101785.43;111917;1264;20965;-37
2023/06/03 10:04:03;;;;;;;;;5.00;2.00;;;;;21.71;30.19;101784.73;112075;1264;20243;-37
2023/06/03 10:06:30;;;;;;;;;4.00;4.00;;;;;21.76;30.43;101782.98;111953;1251;20781;-37
2023/06/03 10:09:00;;;;;;;;;2.00;2.00;;;;;21.76;30.66;101784.76;112100;1264;18230;-38
2023/06/03 10:11:27;;;;;;;;;4.00;3.00;;;;;21.78;30.78;101781.66;112117;1264;21079;-39
2023/06/03 10:13:55;;;;;;;;;2.00;2.00;;;;;21.88;31.02;101784.48;111991;1264;19354;-36
2023/06/03 10:16:22;;;;;;;;;2.67;2.00;;;;;21.87;30.92;101782.69;112122;1264;18131;-39
2023/06/03 10:18:51;;;;;;;;;2.00;2.00;;;;;21.92;31.14;101778.39;111984;1257;18845;-37
2023/06/03 10:21:19;;;;;;;;;4.00;4.00;;;;;22.00;31.13;101771.73;112009;1264;20906;-37
2023/06/03 10:23:46;;;;;;;;;2.00;2.00;;;;;22.00;30.86;101771.16;111921;1264;18160;-39
2023/06/03 10:26:16;;;;;;;;;4.00;4.00;;;;;21.99;31.06;101767.80;112031;1264;20251;-38
2023/06/03 10:28:45;;;;;;;;;4.00;4.00;;;;;22.03;30.88;101771.89;112051;1264;20794;-39
2023/06/03 10:31:12;;;;;;;;;2.00;2.00;;;;;22.03;30.89;101772.36;112151;1249;20395;-38
2023/06/03 10:33:40;;;;;;;;;4.00;2.00;;;;;22.06;30.95;101774.20;111982;1264;20206;-41
2023/06/03 10:36:09;;;;;;;;;2.67;2.67;;;;;22.03;30.61;101777.55;112129;1250;20969;-39
2023/06/03 10:38:36;;;;;;;;;2.00;2.00;;;;;21.91;30.57;101777.20;111931;1250;18339;-40
2023/06/03 10:41:04;;;;;;;;;2.00;2.00;;;;;21.80;30.48;101774.34;112062;1264;20177;-38
2023/06/03 10:43:31;;;;;;;;;4.00;4.00;;;;;21.52;29.92;101769.78;111910;1250;20748;-37
2023/06/03 10:45:58;;;;;;;;;2.00;2.00;;;;;21.21;29.59;101773.15;112086;1264;18420;-38
2023/06/03 10:48:26;;;;;;;;;4.00;4.00;;;;;21.39;29.77;101769.08;111924;1257;19815;-38
2023/06/03 10:50:54;;;;;;;;;7.00;5.00;;;;;21.66;29.89;101765.46;112070;1264;20856;-39
2023/06/03 10:53:21;;;;;;;;;7.67;7.00;;;;;21.52;29.81;101765.66;111943;1264;19544;-40
2023/06/03 10:55:48;;;;;;;;;12.00;9.00;;;;;21.48;30.11;101770.34;112044;1264;19076;-38
2023/06/03 10:58:16;;;;;;;;;10.00;7.00;;;;;21.53;30.75;101763.38;111929;1249;20770;-38
2023/06/03 11:00:43;;;;;;;;;11.00;10.00;;;;;21.62;30.70;101761.89;112095;1249;20054;-40
2023/06/03 11:03:15;;;;;;;;;15.00;13.00;;;;;21.51;30.69;101750.98;111964;1264;20326;-39
2023/06/03 11:05:44;;;;;;;;;8.00;8.00;;;;;21.52;31.00;101750.93;112098;1264;20886;-39
2023/06/03 11:08:11;;;;;;;;;7.00;6.00;;;;;21.55;30.74;101748.37;111924;1250;19948;-38
2023/06/03 11:10:40;;;;;;;;;4.00;4.00;;;;;21.33;30.47;101743.89;112025;1250;20055;-39
2023/06/03 11:13:07;;;;;;;;;4.50;4.50;;;;;21.27;30.35;101741.59;112104;1264;20723;-39
2023/06/03 11:15:35;;;;;;;;;2.67;2.67;;;;;21.37;30.75;101743.33;111983;1264;19623;-39
2023/06/03 11:18:02;;;;;;;;;2.00;2.00;;;;;21.31;30.32;101741.00;112131;1249;19964;-39
2023/06/03 11:20:30;;;;;;;;;4.00;3.00;;;;;21.36;30.51;101741.65;111969;1264;20679;-39
2023/06/03 11:22:57;;;;;;;;;2.00;2.00;;;;;21.45;30.70;101738.15;112155;1264;19848;-41
2023/06/03 11:25:25;;;;;;;;;4.00;4.00;;;;;21.46;30.50;101739.49;112003;1249;18732;-39
2023/06/03 11:27:53;;;;;;;;;2.00;2.00;;;;;21.51;30.58;101734.10;112124;1264;19559;-40